Time;durP1;ratioP1;P1;durP2;ratioP2;P2;SDS_P1;SDS_P2;PMS_P1;PMS_P2;Temp;Humidity;BMP_temperature;BMP_pressure;BME280_temperature;BME280_humidity;BME280_pressure;Samples;Min_cycle;Max_cycle;Signal;HPM_P1;HPM_P2
2022/12/27 00:00:56;;;;;;;;;2.00;2.00;;;;;;;;5084900;28;61988;-77
2022/12/27 00:03:21;;;;;;;;;3.50;2.00;;;;;;;;5084740;28;61872;-77
2022/12/27 00:05:46;;;;;;;;;6.75;3.00;;;;;;;;5085354;28;61709;-77
2022/12/27 00:08:12;;;;;;;;;2.00;2.00;;;;;;;;5083457;27;62931;-77
2022/12/27 00:10:38;;;;;;;;;3.25;2.00;;;;;;;;5085093;28;61928;-77
2022/12/27 00:13:03;;;;;;;;;3.00;2.50;;;;;;;;5083379;28;62001;-77
2022/12/27 00:15:28;;;;;;;;;5.00;4.50;;;;;;;;5085066;28;61722;-77
2022/12/27 00:17:54;;;;;;;;;6.25;4.50;;;;;;;;5083960;28;61890;-77
2022/12/27 00:20:19;;;;;;;;;6.00;5.75;;;;;;;;5084318;27;62190;-77
2022/12/27 00:22:45;;;;;;;;;12.75;8.00;;;;;;;;5084271;27;61702;-77
2022/12/27 00:25:10;;;;;;;;;14.75;8.00;;;;;;;;5084971;28;62250;-77
2022/12/27 00:27:36;;;;;;;;;9.50;6.75;;;;;;;;5116725;27;63577;-77
2022/12/27 00:30:01;;;;;;;;;21.25;10.75;;;;;;;;5084616;27;61690;-77
2022/12/27 00:32:26;;;;;;;;;4.25;2.25;;;;;;;;5084113;27;61918;-77
2022/12/27 00:34:51;;;;;;;;;6.50;5.75;;;;;;;;5084641;28;61770;-77
2022/12/27 00:37:17;;;;;;;;;4.25;3.00;;;;;;;;5083424;28;61726;-77
2022/12/27 00:39:42;;;;;;;;;3.50;2.75;;;;;;;;5084349;28;61987;-77
2022/12/27 00:42:07;;;;;;;;;3.00;3.00;;;;;;;;5084402;28;61862;-77
2022/12/27 00:44:33;;;;;;;;;6.75;2.75;;;;;;;;5084659;28;61687;-77
2022/12/27 00:46:58;;;;;;;;;6.00;3.50;;;;;;;;5082256;27;61690;-77
2022/12/27 00:49:23;;;;;;;;;9.25;3.00;;;;;;;;5083878;27;61743;-77
2022/12/27 00:51:49;;;;;;;;;2.00;2.00;;;;;;;;5082571;28;61944;-77
2022/12/27 00:54:14;;;;;;;;;2.25;1.00;;;;;;;;5083107;28;62214;-77
2022/12/27 00:56:39;;;;;;;;;1.75;1.50;;;;;;;;5082241;28;64789;-77
2022/12/27 00:59:05;;;;;;;;;3.00;1.00;;;;;;;;5082795;28;62043;-77
2022/12/27 01:01:32;;;;;;;;;0.75;0.75;;;;;;;;5083659;27;61794;-77
2022/12/27 01:03:57;;;;;;;;;2.75;2.00;;;;;;;;5084541;27;62233;-77
2022/12/27 01:06:24;;;;;;;;;4.25;1.00;;;;;;;;5081490;28;65023;-77
2022/12/27 01:08:50;;;;;;;;;2.75;1.75;;;;;;;;5089431;27;61888;-77
2022/12/27 01:11:16;;;;;;;;;3.50;1.00;;;;;;;;5082719;28;61868;-77
2022/12/27 01:13:41;;;;;;;;;2.00;1.00;;;;;;;;5083863;28;62110;-77
2022/12/27 01:16:11;;;;;;;;;5.25;2.00;;;;;;;;5082920;28;62878;-77
2022/12/27 01:18:37;;;;;;;;;4.50;1.50;;;;;;;;5083637;28;61817;-77
2022/12/27 01:21:06;;;;;;;;;5.00;3.00;;;;;;;;5083705;27;61710;-77
2022/12/27 01:23:31;;;;;;;;;4.00;1.25;;;;;;;;5082463;28;62401;-77
2022/12/27 01:26:04;;;;;;;;;3.00;2.00;;;;;;;;5081843;28;64692;-77
2022/12/27 01:28:29;;;;;;;;;4.50;1.00;;;;;;;;5082287;28;62004;-77
2022/12/27 01:30:55;;;;;;;;;0.25;0.00;;;;;;;;5083520;28;61829;-77
2022/12/27 01:33:20;;;;;;;;;2.00;2.00;;;;;;;;5083764;28;61847;-77
2022/12/27 01:35:45;;;;;;;;;2.50;1.75;;;;;;;;5083219;28;61836;-77
2022/12/27 01:38:10;;;;;;;;;2.50;1.25;;;;;;;;5083188;28;62071;-77
2022/12/27 01:40:36;;;;;;;;;2.25;1.00;;;;;;;;5083741;28;61893;-77
2022/12/27 01:43:01;;;;;;;;;1.00;1.00;;;;;;;;5082142;28;61884;-77
2022/12/27 01:45:28;;;;;;;;;1.00;1.00;;;;;;;;5081285;28;63481;-77
2022/12/27 01:48:03;;;;;;;;;1.00;0.50;;;;;;;;5083413;28;62062;-77
2022/12/27 01:50:34;;;;;;;;;4.25;1.00;;;;;;;;5083091;27;61850;-77
2022/12/27 01:53:00;;;;;;;;;2.00;1.00;;;;;;;;5083013;28;61897;-77
2022/12/27 01:55:44;;;;;;;;;1.00;1.00;;;;;;;;5081186;28;63732;-77
2022/12/27 01:58:34;;;;;;;;;4.50;1.00;;;;;;;;5082879;27;61912;-77
2022/12/27 02:01:00;;;;;;;;;3.00;2.00;;;;;;;;5080181;28;61619;-77
2022/12/27 02:03:42;;;;;;;;;1.50;1.00;;;;;;;;5083386;28;62009;-77
2022/12/27 02:06:09;;;;;;;;;1.25;1.25;;;;;;;;5080760;28;63697;-77
2022/12/27 02:08:58;;;;;;;;;2.00;2.00;;;;;;;;5089846;27;61792;-77
2022/12/27 02:14:12;;;;;;;;;1.00;1.00;;;;;;;;5083235;28;61700;-77
2022/12/27 02:16:37;;;;;;;;;2.00;2.00;;;;;;;;5082431;28;61887;-77
2022/12/27 02:19:05;;;;;;;;;1.00;1.00;;;;;;;;5082825;28;61974;-77
2022/12/27 02:21:36;;;;;;;;;3.50;1.50;;;;;;;;5082320;27;62048;-77
2022/12/27 02:24:05;;;;;;;;;2.00;2.00;;;;;;;;5083247;28;61838;-77
2022/12/27 02:26:37;;;;;;;;;1.25;1.00;;;;;;;;5082275;28;62573;-77
2022/12/27 02:29:20;;;;;;;;;3.25;2.00;;;;;;;;5082645;28;61690;-77
2022/12/27 02:32:03;;;;;;;;;2.75;2.75;;;;;;;;5081163;28;61926;-77
2022/12/27 02:34:32;;;;;;;;;2.00;0.00;;;;;;;;5083133;28;61773;-77
2022/12/27 02:37:01;;;;;;;;;5.00;1.50;;;;;;;;5081892;28;61827;-77
2022/12/27 02:39:27;;;;;;;;;1.25;1.25;;;;;;;;5082720;28;61729;-77
2022/12/27 02:53:04;;;;;;;;;3.00;2.00;;;;;;;;5082152;28;61709;-77
2022/12/27 02:55:30;;;;;;;;;1.25;1.00;;;;;;;;5082832;27;62199;-77
2022/12/27 02:57:55;;;;;;;;;1.50;1.00;;;;;;;;5081781;27;62616;-77
2022/12/27 03:03:22;;;;;;;;;1.75;1.75;;;;;;;;5082319;28;61800;-77
2022/12/27 03:08:59;;;;;;;;;2.50;2.00;;;;;;;;5088788;27;62103;-77
2022/12/27 03:17:25;;;;;;;;;1.25;1.00;;;;;;;;5043167;28;62091;-77
2022/12/27 03:25:28;;;;;;;;;4.75;1.75;;;;;;;;5042430;28;61926;-77
2022/12/27 03:34:30;;;;;;;;;5.50;2.00;;;;;;;;5042610;28;61935;-77
2022/12/27 03:39:39;;;;;;;;;5.50;2.00;;;;;;;;5042938;28;61856;-77
2022/12/27 03:44:53;;;;;;;;;1.75;1.75;;;;;;;;5042460;28;62172;-77
2022/12/27 03:47:18;;;;;;;;;2.00;1.00;;;;;;;;5042547;28;61762;-77
2022/12/27 03:49:47;;;;;;;;;2.00;1.00;;;;;;;;5027563;28;62250;-77
2022/12/27 03:52:22;;;;;;;;;1.25;1.00;;;;;;;;5084144;28;61874;-77
2022/12/27 03:54:49;;;;;;;;;2.00;2.00;;;;;;;;5083418;28;61867;-77
2022/12/27 03:57:17;;;;;;;;;2.50;2.50;;;;;;;;5083850;28;61919;-77
2022/12/27 03:59:42;;;;;;;;;2.00;1.00;;;;;;;;5085428;27;61883;-77
2022/12/27 04:02:08;;;;;;;;;5.00;1.50;;;;;;;;5084412;28;61850;-77
2022/12/27 04:04:34;;;;;;;;;0.25;0.00;;;;;;;;5083815;28;61854;-77
2022/12/27 04:06:59;;;;;;;;;1.75;1.75;;;;;;;;5088604;27;61669;-77
2022/12/27 04:36:44;;;;;;;;;2.00;2.00;;;;;;;;5084115;28;61835;-77
2022/12/27 04:39:09;;;;;;;;;3.75;2.50;;;;;;;;5083133;28;61713;-77
2022/12/27 04:55:22;;;;;;;;;5.00;5.00;;;;;;;;5083877;28;61746;-77
2022/12/27 04:57:48;;;;;;;;;2.50;1.00;;;;;;;;5084233;28;61864;-77
2022/12/27 05:02:59;;;;;;;;;3.25;1.75;;;;;;;;5084062;28;61782;-77
2022/12/27 05:05:24;;;;;;;;;2.00;2.00;;;;;;;;5083476;28;61785;-77
2022/12/27 05:16:01;;;;;;;;;2.75;1.50;;;;;;;;5103798;27;61923;-77
2022/12/27 05:18:27;;;;;;;;;1.75;1.75;;;;;;;;5104291;27;62294;-77
2022/12/27 05:20:52;;;;;;;;;2.00;2.00;;;;;;;;5104268;27;62188;-77
2022/12/27 05:26:02;;;;;;;;;1.50;1.00;;;;;;;;5103559;27;62416;-77
2022/12/27 05:28:27;;;;;;;;;2.00;2.00;;;;;;;;5103998;27;61994;-77
2022/12/27 05:30:52;;;;;;;;;2.25;1.00;;;;;;;;5102882;27;61914;-77
2022/12/27 05:33:17;;;;;;;;;4.00;3.00;;;;;;;;5103323;27;61757;-77
2022/12/27 05:35:43;;;;;;;;;3.00;3.00;;;;;;;;5103506;27;62806;-77
2022/12/27 05:38:08;;;;;;;;;3.50;1.50;;;;;;;;5103383;27;61861;-77
2022/12/27 05:40:33;;;;;;;;;2.75;2.75;;;;;;;;5104305;27;62419;-77
2022/12/27 05:42:59;;;;;;;;;2.50;1.50;;;;;;;;5103749;27;61851;-77
2022/12/27 05:45:24;;;;;;;;;6.25;2.25;;;;;;;;5103400;27;62768;-77
2022/12/27 05:47:50;;;;;;;;;0.00;0.00;;;;;;;;5102419;27;61907;-77
2022/12/27 05:50:15;;;;;;;;;2.00;2.00;;;;;;;;5103535;27;61797;-77
2022/12/27 05:52:40;;;;;;;;;2.25;2.25;;;;;;;;5103456;27;62036;-77
2022/12/27 05:55:06;;;;;;;;;5.00;2.75;;;;;;;;5103138;27;61824;-77
2022/12/27 05:57:31;;;;;;;;;3.50;2.00;;;;;;;;5103732;27;61737;-77
2022/12/27 05:59:57;;;;;;;;;3.00;2.00;;;;;;;;5103960;27;61859;-77
2022/12/27 06:02:22;;;;;;;;;2.00;0.75;;;;;;;;5103571;27;61719;-77
2022/12/27 06:04:47;;;;;;;;;1.50;0.50;;;;;;;;5103197;27;61885;-77
2022/12/27 06:07:13;;;;;;;;;1.00;1.00;;;;;;;;5096421;27;61966;-77
2022/12/27 06:09:38;;;;;;;;;2.00;1.00;;;;;;;;5081850;28;62166;-77
2022/12/27 06:12:04;;;;;;;;;2.25;2.25;;;;;;;;5081834;28;61930;-77
2022/12/27 06:14:29;;;;;;;;;2.00;0.00;;;;;;;;5082672;27;61663;-77
2022/12/27 06:16:54;;;;;;;;;1.00;1.00;;;;;;;;5081484;28;61918;-77
2022/12/27 06:19:20;;;;;;;;;3.00;1.00;;;;;;;;5082663;28;61809;-77
2022/12/27 06:21:45;;;;;;;;;1.00;1.00;;;;;;;;5081488;28;61876;-77
2022/12/27 06:24:10;;;;;;;;;1.00;1.00;;;;;;;;5082269;27;61658;-77
2022/12/27 06:26:35;;;;;;;;;3.00;1.00;;;;;;;;5082986;27;61903;-77
2022/12/27 06:29:01;;;;;;;;;5.75;3.00;;;;;;;;5082664;28;62104;-77
2022/12/27 06:31:26;;;;;;;;;3.50;2.00;;;;;;;;5083010;28;62084;-77
2022/12/27 06:33:51;;;;;;;;;5.00;2.75;;;;;;;;5082144;28;62814;-76
2022/12/27 06:36:18;;;;;;;;;2.50;2.25;;;;;;;;5082650;27;61832;-77
2022/12/27 06:38:44;;;;;;;;;7.00;1.75;;;;;;;;5082221;27;62091;-77
2022/12/27 06:41:10;;;;;;;;;1.00;1.00;;;;;;;;5083142;27;61769;-77
2022/12/27 06:43:36;;;;;;;;;2.00;2.00;;;;;;;;5081753;27;62692;-77
2022/12/27 06:46:03;;;;;;;;;0.00;0.00;;;;;;;;5085890;27;62174;-77
2022/12/27 06:48:28;;;;;;;;;1.00;1.00;;;;;;;;5086108;27;61894;-77
2022/12/27 06:50:53;;;;;;;;;1.00;1.00;;;;;;;;5086280;28;61882;-77
2022/12/27 06:53:19;;;;;;;;;3.75;2.00;;;;;;;;5083423;28;64915;-77
2022/12/27 06:55:44;;;;;;;;;1.00;1.00;;;;;;;;5086405;28;61750;-77
2022/12/27 06:58:09;;;;;;;;;10.75;3.50;;;;;;;;5085945;28;61660;-77
2022/12/27 07:00:35;;;;;;;;;4.00;4.00;;;;;;;;5086488;28;61679;-77
2022/12/27 07:03:02;;;;;;;;;1.50;1.50;;;;;;;;5085076;27;62754;-77
2022/12/27 07:05:27;;;;;;;;;6.50;1.00;;;;;;;;5085836;27;61841;-77
2022/12/27 07:07:53;;;;;;;;;6.25;3.00;;;;;;;;5087802;27;61943;-77
2022/12/27 07:10:18;;;;;;;;;4.00;2.25;;;;;;;;5086084;28;61735;-77
2022/12/27 07:12:44;;;;;;;;;6.00;5.00;;;;;;;;5085111;28;61742;-77
2022/12/27 07:15:09;;;;;;;;;3.00;3.00;;;;;;;;5085781;28;62560;-77
2022/12/27 07:17:35;;;;;;;;;6.25;5.00;;;;;;;;5085592;28;62026;-77
2022/12/27 07:20:01;;;;;;;;;6.75;6.00;;;;;;;;5084416;28;61891;-77
2022/12/27 07:22:26;;;;;;;;;3.00;3.00;;;;;;;;5084737;28;61959;-77
2022/12/27 07:24:52;;;;;;;;;3.50;3.50;;;;;;;;5084264;28;61871;-77
2022/12/27 07:27:17;;;;;;;;;4.50;3.00;;;;;;;;5085695;28;61805;-77
2022/12/27 07:29:42;;;;;;;;;2.00;2.00;;;;;;;;5085885;28;61862;-77
2022/12/27 07:32:07;;;;;;;;;5.00;1.75;;;;;;;;5083252;28;65130;-77
2022/12/27 07:34:33;;;;;;;;;4.50;3.00;;;;;;;;5085502;28;61710;-77
2022/12/27 07:36:58;;;;;;;;;3.00;1.75;;;;;;;;5085359;28;62032;-77
2022/12/27 07:39:23;;;;;;;;;5.75;4.00;;;;;;;;5084155;28;61723;-77
2022/12/27 07:41:49;;;;;;;;;3.75;2.75;;;;;;;;5084684;28;62823;-77
2022/12/27 07:44:14;;;;;;;;;3.00;2.00;;;;;;;;5085175;28;61817;-77
2022/12/27 07:46:39;;;;;;;;;4.00;2.50;;;;;;;;5085470;28;61873;-77
2022/12/27 07:49:06;;;;;;;;;3.25;2.25;;;;;;;;5085188;28;61880;-77
2022/12/27 07:51:31;;;;;;;;;9.25;3.00;;;;;;;;5084069;28;61792;-77
2022/12/27 07:53:56;;;;;;;;;3.00;3.00;;;;;;;;5085074;28;61884;-77
2022/12/27 07:56:23;;;;;;;;;2.75;2.75;;;;;;;;5083180;28;61946;-77
2022/12/27 07:58:49;;;;;;;;;3.00;3.00;;;;;;;;5085485;28;61738;-77
2022/12/27 08:01:16;;;;;;;;;5.00;3.00;;;;;;;;5083035;28;64917;-77
2022/12/27 08:03:41;;;;;;;;;2.00;2.00;;;;;;;;5083465;28;61709;-77
2022/12/27 08:06:07;;;;;;;;;2.00;2.00;;;;;;;;5083450;28;61978;-77
2022/12/27 08:08:38;;;;;;;;;6.75;2.25;;;;;;;;5101866;27;61699;-77
2022/12/27 08:11:03;;;;;;;;;5.00;3.00;;;;;;;;5105094;27;63012;-77
2022/12/27 08:13:28;;;;;;;;;2.00;2.00;;;;;;;;5104862;27;61812;-77
2022/12/27 08:15:54;;;;;;;;;5.50;3.50;;;;;;;;5103921;27;61905;-77
2022/12/27 08:18:19;;;;;;;;;6.00;5.00;;;;;;;;5105349;27;61904;-77
2022/12/27 08:20:44;;;;;;;;;2.75;1.50;;;;;;;;5104384;27;61910;-77
2022/12/27 08:23:10;;;;;;;;;2.75;2.75;;;;;;;;5104838;27;61998;-77
2022/12/27 08:25:35;;;;;;;;;5.75;3.25;;;;;;;;5105052;27;61816;-77
2022/12/27 08:28:05;;;;;;;;;3.00;2.00;;;;;;;;5103769;27;61832;-77
2022/12/27 08:30:30;;;;;;;;;3.00;3.00;;;;;;;;5104287;27;61872;-77
2022/12/27 08:32:55;;;;;;;;;3.75;2.25;;;;;;;;5103412;27;62101;-77
2022/12/27 08:35:21;;;;;;;;;6.00;3.00;;;;;;;;5105085;27;61740;-78
2022/12/27 08:37:46;;;;;;;;;2.25;2.25;;;;;;;;5105028;27;61784;-77
2022/12/27 08:40:11;;;;;;;;;2.75;2.75;;;;;;;;5104378;27;61879;-77
2022/12/27 08:42:36;;;;;;;;;6.00;3.00;;;;;;;;5104601;27;61821;-77
2022/12/27 08:45:02;;;;;;;;;5.75;2.25;;;;;;;;5103307;27;61898;-77
2022/12/27 08:47:27;;;;;;;;;5.25;3.00;;;;;;;;5105007;27;61680;-77
2022/12/27 08:49:52;;;;;;;;;5.25;2.00;;;;;;;;5102540;27;63571;-77
2022/12/27 08:52:18;;;;;;;;;6.00;2.25;;;;;;;;5104264;27;61993;-77
2022/12/27 08:54:43;;;;;;;;;9.25;5.00;;;;;;;;5103177;27;61835;-77
2022/12/27 08:57:08;;;;;;;;;2.00;2.00;;;;;;;;5104955;27;61883;-77
2022/12/27 08:59:33;;;;;;;;;6.75;3.50;;;;;;;;5103722;27;62084;-77
2022/12/27 09:01:59;;;;;;;;;2.00;2.00;;;;;;;;5104528;27;61869;-77
2022/12/27 09:04:24;;;;;;;;;2.00;2.00;;;;;;;;5104494;27;61763;-77
2022/12/27 09:06:49;;;;;;;;;3.00;3.00;;;;;;;;5101657;27;62072;-77
2022/12/27 09:09:14;;;;;;;;;3.50;2.75;;;;;;;;5082322;28;61935;-77
2022/12/27 09:11:40;;;;;;;;;4.50;2.75;;;;;;;;5082343;28;61858;-77
2022/12/27 09:14:05;;;;;;;;;7.00;3.00;;;;;;;;5083599;28;61976;-77
2022/12/27 09:16:32;;;;;;;;;2.50;1.00;;;;;;;;5084106;28;61785;-78
2022/12/27 09:18:58;;;;;;;;;3.75;2.00;;;;;;;;5083017;28;61764;-78
2022/12/27 09:21:25;;;;;;;;;6.25;3.00;;;;;;;;5083681;28;61678;-77
2022/12/27 09:23:50;;;;;;;;;3.50;2.00;;;;;;;;5082069;28;62088;-77
2022/12/27 09:26:20;;;;;;;;;6.25;2.00;;;;;;;;5083950;28;61719;-78
2022/12/27 09:28:47;;;;;;;;;3.00;3.00;;;;;;;;5082814;28;62927;-78
2022/12/27 09:31:13;;;;;;;;;4.50;3.00;;;;;;;;5083465;28;61738;-78
2022/12/27 09:33:38;;;;;;;;;6.50;2.50;;;;;;;;5081845;28;61777;-78
2022/12/27 09:36:05;;;;;;;;;4.00;2.00;;;;;;;;5083906;28;61821;-78
2022/12/27 09:38:30;;;;;;;;;2.00;2.00;;;;;;;;5081190;28;62862;-78
2022/12/27 09:40:58;;;;;;;;;6.00;2.25;;;;;;;;5083512;28;61880;-78
2022/12/27 09:43:29;;;;;;;;;2.00;2.00;;;;;;;;5083158;28;62126;-78
2022/12/27 09:45:56;;;;;;;;;0.00;0.00;;;;;;;;5083805;27;61772;-77
2022/12/27 09:48:21;;;;;;;;;2.50;2.00;;;;;;;;5081179;28;63855;-78
2022/12/27 09:50:58;;;;;;;;;2.25;2.25;;;;;;;;5083003;28;61711;-78
2022/12/27 09:53:44;;;;;;;;;8.50;3.00;;;;;;;;5082610;28;61909;-78
2022/12/27 09:56:17;;;;;;;;;6.25;2.50;;;;;;;;5074572;28;62184;-78
2022/12/27 09:58:48;;;;;;;;;3.75;2.00;;;;;;;;5082251;28;61999;-77
2022/12/27 10:01:21;;;;;;;;;4.25;1.00;;;;;;;;5082050;28;61785;-78
2022/12/27 10:03:47;;;;;;;;;3.75;3.00;;;;;;;;5082958;28;61931;-77
2022/12/27 10:06:30;;;;;;;;;5.00;1.75;;;;;;;;5081892;28;61628;-78
2022/12/27 10:08:58;;;;;;;;;3.50;1.00;;;;;;;;5079945;28;61936;-78
2022/12/27 10:11:35;;;;;;;;;0.25;0.00;;;;;;;;5082834;28;61927;-77
2022/12/27 10:14:21;;;;;;;;;2.00;2.00;;;;;;;;5082949;28;61798;-78
2022/12/27 10:17:05;;;;;;;;;4.50;2.50;;;;;;;;5074170;28;62018;-78
2022/12/27 10:19:57;;;;;;;;;4.25;2.00;;;;;;;;5080336;28;64900;-77
2022/12/27 10:22:31;;;;;;;;;8.00;1.00;;;;;;;;5081141;28;61800;-77
2022/12/27 10:24:58;;;;;;;;;3.75;2.75;;;;;;;;5082625;28;61722;-77
2022/12/27 10:27:25;;;;;;;;;4.25;2.25;;;;;;;;5081402;28;61884;-78
2022/12/27 10:29:51;;;;;;;;;4.00;2.25;;;;;;;;5082258;27;61796;-77
2022/12/27 10:32:17;;;;;;;;;3.75;2.25;;;;;;;;5081359;28;61768;-77
2022/12/27 10:34:42;;;;;;;;;5.00;3.00;;;;;;;;5082678;28;61831;-78
2022/12/27 10:37:12;;;;;;;;;2.00;2.00;;;;;;;;5082667;28;61829;-78
2022/12/27 10:39:37;;;;;;;;;6.00;3.50;;;;;;;;5081927;28;61888;-78
2022/12/27 10:42:25;;;;;;;;;1.25;1.25;;;;;;;;5082154;28;61693;-77
2022/12/27 10:44:51;;;;;;;;;12.00;2.75;;;;;;;;5082480;28;61624;-77
2022/12/27 10:47:16;;;;;;;;;2.00;2.00;;;;;;;;5082987;28;61678;-78
2022/12/27 10:49:44;;;;;;;;;2.75;2.00;;;;;;;;5080259;28;63500;-77
2022/12/27 10:52:17;;;;;;;;;2.00;1.75;;;;;;;;5081811;28;61802;-78
2022/12/27 10:54:53;;;;;;;;;3.25;1.00;;;;;;;;5082451;27;61775;-78
2022/12/27 10:57:32;;;;;;;;;2.00;2.00;;;;;;;;5082768;28;61797;-78
2022/12/27 11:00:16;;;;;;;;;4.00;3.00;;;;;;;;5081868;28;62723;-78
2022/12/27 11:02:55;;;;;;;;;1.00;1.00;;;;;;;;5080870;28;61928;-78
2022/12/27 11:05:27;;;;;;;;;0.25;0.25;;;;;;;;5082715;28;62008;-77
2022/12/27 11:07:52;;;;;;;;;3.25;2.00;;;;;;;;5083947;27;61755;-78
2022/12/27 11:10:19;;;;;;;;;1.25;1.25;;;;;;;;5081420;28;62811;-77
2022/12/27 11:12:53;;;;;;;;;2.25;1.00;;;;;;;;5082317;28;61826;-78
2022/12/27 11:15:19;;;;;;;;;1.00;1.00;;;;;;;;5082132;28;61751;-77
2022/12/27 11:17:46;;;;;;;;;1.00;1.00;;;;;;;;5082590;28;61863;-78
2022/12/27 11:20:17;;;;;;;;;1.25;1.25;;;;;;;;5080098;28;63676;-78
2022/12/27 11:23:01;;;;;;;;;3.00;1.00;;;;;;;;5080391;28;61784;-78
2022/12/27 11:25:27;;;;;;;;;2.00;1.00;;;;;;;;5081958;28;61734;-78
2022/12/27 11:27:55;;;;;;;;;1.00;1.00;;;;;;;;5080941;28;61706;-78
2022/12/27 11:30:26;;;;;;;;;3.00;1.00;;;;;;;;5080152;28;63846;-77
2022/12/27 11:32:51;;;;;;;;;2.00;1.00;;;;;;;;5084244;28;61972;-78
2022/12/27 11:35:18;;;;;;;;;5.50;1.50;;;;;;;;5085766;28;61811;-77
2022/12/27 11:37:43;;;;;;;;;2.50;1.00;;;;;;;;5085367;27;61739;-78
2022/12/27 11:40:23;;;;;;;;;1.50;1.00;;;;;;;;5084517;28;62782;-78
2022/12/27 11:42:51;;;;;;;;;1.00;1.00;;;;;;;;5085481;28;61997;-78
2022/12/27 11:45:21;;;;;;;;;0.25;0.25;;;;;;;;5083967;28;62140;-78
2022/12/27 11:48:13;;;;;;;;;1.00;0.25;;;;;;;;5085596;28;61687;-78
2022/12/27 11:50:44;;;;;;;;;1.75;0.75;;;;;;;;5083018;28;64833;-78
2022/12/27 11:53:45;;;;;;;;;1.00;1.00;;;;;;;;5084620;27;61892;-77
2022/12/27 11:56:25;;;;;;;;;0.50;0.50;;;;;;;;5062488;28;61863;-78
2022/12/27 11:59:09;;;;;;;;;1.25;0.25;;;;;;;;5062373;28;61913;-78
2022/12/27 12:01:34;;;;;;;;;4.75;1.00;;;;;;;;5061885;28;61951;-78
2022/12/27 12:04:22;;;;;;;;;3.75;1.00;;;;;;;;5062034;28;62005;-78
2022/12/27 12:07:16;;;;;;;;;1.00;0.00;;;;;;;;5047172;28;62036;-78
2022/12/27 12:09:44;;;;;;;;;2.00;0.25;;;;;;;;5021693;28;62182;-78
2022/12/27 12:12:39;;;;;;;;;1.50;1.50;;;;;;;;5004491;28;64124;-78
2022/12/27 12:15:13;;;;;;;;;7.50;1.00;;;;;;;;5004994;28;62147;-78
2022/12/27 12:17:46;;;;;;;;;0.25;0.25;;;;;;;;5005370;28;61916;-78
2022/12/27 12:20:29;;;;;;;;;1.00;1.00;;;;;;;;5021960;28;61946;-78
2022/12/27 12:23:12;;;;;;;;;0.00;0.00;;;;;;;;5020744;28;63210;-78
2022/12/27 12:26:00;;;;;;;;;2.00;0.75;;;;;;;;5021712;28;62066;-78
2022/12/27 12:28:31;;;;;;;;;3.00;0.25;;;;;;;;5013841;28;61859;-78
2022/12/27 12:31:06;;;;;;;;;2.00;1.00;;;;;;;;5054395;28;61896;-79
2022/12/27 12:33:31;;;;;;;;;0.75;0.75;;;;;;;;5061235;28;61855;-78
2022/12/27 12:36:15;;;;;;;;;4.00;0.75;;;;;;;;5061870;28;61920;-78
2022/12/27 12:39:00;;;;;;;;;2.00;0.75;;;;;;;;5061324;28;61996;-78
2022/12/27 12:41:25;;;;;;;;;0.75;0.00;;;;;;;;5044714;28;62074;-77
2022/12/27 12:44:06;;;;;;;;;0.25;0.25;;;;;;;;5043793;28;64561;-77
2022/12/27 12:46:36;;;;;;;;;3.00;0.50;;;;;;;;5090193;27;61967;-78
2022/12/27 12:49:04;;;;;;;;;0.75;0.75;;;;;;;;5103132;27;61808;-78
2022/12/27 12:51:48;;;;;;;;;1.50;0.00;;;;;;;;5104752;27;61916;-77
2022/12/27 12:54:13;;;;;;;;;1.00;1.00;;;;;;;;5103720;27;62795;-78
2022/12/27 12:56:41;;;;;;;;;1.00;0.00;;;;;;;;5103267;27;61785;-78
2022/12/27 12:59:14;;;;;;;;;1.00;1.00;;;;;;;;5105460;27;61689;-78
2022/12/27 13:01:43;;;;;;;;;3.00;0.00;;;;;;;;5104914;27;62161;-78
2022/12/27 13:04:21;;;;;;;;;1.00;1.00;;;;;;;;5102121;27;63735;-78
2022/12/27 13:06:52;;;;;;;;;5.75;3.00;;;;;;;;5101204;27;61689;-77
2022/12/27 13:09:18;;;;;;;;;2.00;1.00;;;;;;;;5083882;28;61765;-78
2022/12/27 13:11:49;;;;;;;;;1.00;1.00;;;;;;;;5082613;28;61958;-78
2022/12/27 13:14:33;;;;;;;;;2.50;0.00;;;;;;;;5082997;28;61761;-78
2022/12/27 13:16:58;;;;;;;;;0.00;0.00;;;;;;;;5083924;28;61961;-78
2022/12/27 13:19:32;;;;;;;;;0.50;0.50;;;;;;;;5083568;28;61889;-77
2022/12/27 13:22:07;;;;;;;;;0.00;0.00;;;;;;;;5083691;28;61663;-78
2022/12/27 13:24:53;;;;;;;;;0.75;0.75;;;;;;;;5083049;28;61894;-78
2022/12/27 13:27:38;;;;;;;;;0.00;0.00;;;;;;;;5083859;28;61780;-77
2022/12/27 13:30:42;;;;;;;;;1.00;0.00;;;;;;;;5083784;27;61849;-78
2022/12/27 13:33:07;;;;;;;;;0.00;0.00;;;;;;;;5043830;28;62040;-77
2022/12/27 13:35:32;;;;;;;;;0.50;0.50;;;;;;;;5059948;28;62033;-78
2022/12/27 13:38:26;;;;;;;;;1.33;0.00;;;;;;;;5043421;28;61795;-77
2022/12/27 13:40:54;;;;;;;;;1.00;1.00;;;;;;;;5060789;28;61759;-78
2022/12/27 13:43:31;;;;;;;;;0.00;0.00;;;;;;;;5060366;28;62064;-78
2022/12/27 13:46:10;;;;;;;;;0.00;0.00;;;;;;;;5060123;28;61933;-77
2022/12/27 13:48:54;;;;;;;;;1.50;0.50;;;;;;;;5060436;28;62034;-77
2022/12/27 13:51:37;;;;;;;;;0.25;0.25;;;;;;;;5060613;28;61881;-77
2022/12/27 13:54:15;;;;;;;;;0.50;0.50;;;;;;;;5059272;28;61927;-78
2022/12/27 13:56:53;;;;;;;;;0.00;0.00;;;;;;;;5043101;28;64046;-77
2022/12/27 13:59:29;;;;;;;;;0.00;0.00;;;;;;;;5060404;28;62417;-77
2022/12/27 14:02:13;;;;;;;;;0.75;0.00;;;;;;;;5060588;28;62199;-77
2022/12/27 14:04:38;;;;;;;;;0.00;0.00;;;;;;;;5078337;28;62083;-77
2022/12/27 14:07:24;;;;;;;;;0.00;0.00;;;;;;;;5083919;27;61780;-77
2022/12/27 14:10:28;;;;;;;;;0.00;0.00;;;;;;;;5043314;28;62066;-77
2022/12/27 14:12:57;;;;;;;;;0.00;0.00;;;;;;;;4983689;28;61892;-77
2022/12/27 14:15:34;;;;;;;;;1.00;0.00;;;;;;;;5000419;28;61990;-77
2022/12/27 14:18:08;;;;;;;;;0.00;0.00;;;;;;;;4999357;28;65291;-77
2022/12/27 14:20:42;;;;;;;;;0.00;0.00;;;;;;;;5000030;28;61838;-77
2022/12/27 14:23:25;;;;;;;;;1.00;0.00;;;;;;;;4999909;28;61782;-77
2022/12/27 14:25:53;;;;;;;;;1.00;1.00;;;;;;;;5000572;28;61830;-77
2022/12/27 14:28:37;;;;;;;;;1.50;0.00;;;;;;;;4999367;28;61850;-77
2022/12/27 14:31:08;;;;;;;;;3.00;0.00;;;;;;;;5000036;28;61915;-77
2022/12/27 14:33:52;;;;;;;;;1.00;0.00;;;;;;;;4999627;28;61908;-77
2022/12/27 14:36:36;;;;;;;;;0.00;0.00;;;;;;;;4983636;28;62171;-77
2022/12/27 14:39:01;;;;;;;;;0.00;0.00;;;;;;;;4982569;28;63641;-77
2022/12/27 14:41:45;;;;;;;;;1.75;0.75;;;;;;;;4999595;28;62059;-77
2022/12/27 14:44:29;;;;;;;;;1.00;0.00;;;;;;;;5041969;28;61981;-77
2022/12/27 14:47:13;;;;;;;;;0.50;0.00;;;;;;;;5059303;28;61745;-77
2022/12/27 14:50:06;;;;;;;;;2.00;0.75;;;;;;;;5081474;27;61729;-77
2022/12/27 14:52:38;;;;;;;;;2.75;1.00;;;;;;;;5080867;28;61946;-77
2022/12/27 14:55:09;;;;;;;;;1.00;0.00;;;;;;;;5082437;28;61956;-77
2022/12/27 14:57:55;;;;;;;;;0.25;0.25;;;;;;;;5082714;28;61709;-77
2022/12/27 15:00:24;;;;;;;;;0.25;0.25;;;;;;;;5077523;27;61678;-77
2022/12/27 15:02:58;;;;;;;;;1.00;0.00;;;;;;;;5080609;28;62236;-77
2022/12/27 15:05:24;;;;;;;;;2.50;1.00;;;;;;;;5080840;28;61930;-77
2022/12/27 15:08:00;;;;;;;;;2.00;2.00;;;;;;;;5095575;27;61785;-77
2022/12/27 15:10:46;;;;;;;;;1.25;1.00;;;;;;;;5104135;27;64863;-77
2022/12/27 15:13:15;;;;;;;;;2.00;1.25;;;;;;;;5106302;27;61795;-77
2022/12/27 15:15:43;;;;;;;;;2.00;2.00;;;;;;;;5106136;27;61877;-77
2022/12/27 15:18:21;;;;;;;;;2.00;2.00;;;;;;;;5104722;27;61744;-77
2022/12/27 15:20:59;;;;;;;;;1.00;0.00;;;;;;;;5105497;27;62886;-77
2022/12/27 15:23:43;;;;;;;;;0.00;0.00;;;;;;;;5104227;27;61947;-77
2022/12/27 15:26:11;;;;;;;;;1.75;1.00;;;;;;;;5106221;27;61903;-77
2022/12/27 15:28:45;;;;;;;;;1.50;1.00;;;;;;;;5106198;27;61677;-77
2022/12/27 15:31:22;;;;;;;;;1.75;1.00;;;;;;;;5103852;27;63761;-77
2022/12/27 15:34:05;;;;;;;;;0.50;0.25;;;;;;;;5105882;27;61698;-77
2022/12/27 15:36:43;;;;;;;;;2.25;0.50;;;;;;;;5106000;27;61889;-77
2022/12/27 15:39:27;;;;;;;;;2.00;0.50;;;;;;;;5105969;27;61824;-77
2022/12/27 15:41:58;;;;;;;;;1.00;1.00;;;;;;;;5105218;27;61895;-77
2022/12/27 15:44:29;;;;;;;;;3.00;1.00;;;;;;;;5105553;27;61718;-77
2022/12/27 15:46:54;;;;;;;;;0.50;0.50;;;;;;;;5105693;27;61862;-77
2022/12/27 15:49:19;;;;;;;;;1.25;0.25;;;;;;;;5105703;27;61837;-77
2022/12/27 15:51:48;;;;;;;;;2.00;0.00;;;;;;;;5105021;27;61801;-77
2022/12/27 15:54:43;;;;;;;;;1.75;1.50;;;;;;;;5105157;27;61941;-77
2022/12/27 15:57:27;;;;;;;;;1.75;1.75;;;;;;;;5065570;28;62149;-77
2022/12/27 15:59:54;;;;;;;;;1.75;1.00;;;;;;;;5065626;28;61794;-77
2022/12/27 16:02:25;;;;;;;;;3.00;0.75;;;;;;;;5081963;28;62885;-77
2022/12/27 16:05:16;;;;;;;;;1.00;1.00;;;;;;;;5082269;28;61908;-77
2022/12/27 16:07:45;;;;;;;;;5.50;2.00;;;;;;;;5078464;28;61989;-77
2022/12/27 16:10:28;;;;;;;;;1.50;1.50;;;;;;;;5082573;28;61817;-77
2022/12/27 16:12:54;;;;;;;;;1.00;1.00;;;;;;;;5081801;28;63071;-77
2022/12/27 16:15:36;;;;;;;;;1.50;1.50;;;;;;;;5082051;28;61997;-77
2022/12/27 16:18:02;;;;;;;;;5.25;2.75;;;;;;;;5064742;28;61830;-77
2022/12/27 16:20:28;;;;;;;;;3.00;1.75;;;;;;;;5082128;28;62013;-77
2022/12/27 16:22:56;;;;;;;;;6.50;1.00;;;;;;;;5081394;28;62836;-77
2022/12/27 16:25:31;;;;;;;;;2.25;2.25;;;;;;;;5064969;28;62026;-77
2022/12/27 16:28:01;;;;;;;;;4.00;3.00;;;;;;;;5065128;28;61949;-77
2022/12/27 16:30:44;;;;;;;;;2.25;2.25;;;;;;;;5082109;28;61988;-77
2022/12/27 16:33:25;;;;;;;;;5.75;2.00;;;;;;;;5088776;27;62845;-77
2022/12/27 16:36:09;;;;;;;;;5.00;3.25;;;;;;;;5105050;27;61838;-77
2022/12/27 16:38:36;;;;;;;;;6.00;2.25;;;;;;;;5104772;27;61827;-76
2022/12/27 16:41:24;;;;;;;;;3.25;2.00;;;;;;;;5103537;27;62461;-77